Eastland Municipal Airport

About
Name: Eastland Municipal Airport
Identifier:  ETN/KETN
Local Time:  22. Aug 23:20 CDT
Location
Flights per Day
0 flights
Distance: 1,538km (955mi)
Punctuality
50% (0 flights per day delayed)
Delay Average: 33 minutes
Current Weather
 29 C (Humidity: 51%)
  7kt (12km/h / 8mph) from 150°
  16km (10 mi.)
 
 METAR KETN 230355Z AUTO 15007KT 10SM CLR 29/18 A2992 RMK AO2 LTG DSNT W T02910179

Current Flights

Departures
Number Departure To Airline
Arrivals
Number Arrival From Airline

Current Delays

Departures
N/A
Arrivals
N/A

Destinations

Top Destinations
Airport Flights
per week
Seats
per week
  Dallas (DFW) 0 - 0 0
  Visalia (VIS) 0 - 0 0
  Winslow (INW) 0 - 0 0

Airlines & Planes

Top Airlines
Airline Flights
per Day
Seats
per Day
  Flybe Nordic 0 -
Top Plane Types
Model Flights Seats
Beech G36 Bonanza 0.1/day - 0
Beech B200 Super King Air 0.1/day - 0